sensor_id;sensor_type;location;lat;lon;timestamp;temperature;humidity
41060;DHT22;26811;53.160;8.202;2022-12-07T00:06:06;3.80;99.90
41060;DHT22;26811;53.160;8.202;2022-12-07T00:11:14;3.70;99.90
41060;DHT22;26811;53.160;8.202;2022-12-07T00:16:19;3.60;99.90
41060;DHT22;26811;53.160;8.202;2022-12-07T00:26:48;3.70;99.90
41060;DHT22;26811;53.160;8.202;2022-12-07T00:31:49;3.60;99.90
41060;DHT22;26811;53.160;8.202;2022-12-07T00:36:58;3.50;99.90
41060;DHT22;26811;53.160;8.202;2022-12-07T00:47:39;3.50;99.90
41060;DHT22;26811;53.160;8.202;2022-12-07T00:52:40;3.40;99.90
41060;DHT22;26811;53.160;8.202;2022-12-07T00:57:56;3.40;99.90
41060;DHT22;26811;53.160;8.202;2022-12-07T01:08:26;3.40;99.90
41060;DHT22;26811;53.160;8.202;2022-12-07T01:14:12;3.30;99.90
41060;DHT22;26811;53.160;8.202;2022-12-07T01:18:54;3.10;99.90
41060;DHT22;26811;53.160;8.202;2022-12-07T01:24:13;2.90;99.90
41060;DHT22;26811;53.160;8.202;2022-12-07T01:29:21;2.90;99.90
41060;DHT22;26811;53.160;8.202;2022-12-07T01:34:25;2.90;99.90
41060;DHT22;26811;53.160;8.202;2022-12-07T01:39:28;2.90;99.90
41060;DHT22;26811;53.160;8.202;2022-12-07T01:50:37;3.20;99.90
41060;DHT22;26811;53.160;8.202;2022-12-07T01:55:42;3.40;99.90
41060;DHT22;26811;53.160;8.202;2022-12-07T02:00:46;3.50;99.90
41060;DHT22;26811;53.160;8.202;2022-12-07T02:05:55;3.40;99.90
41060;DHT22;26811;53.160;8.202;2022-12-07T02:10:56;3.40;99.90
41060;DHT22;26811;53.160;8.202;2022-12-07T02:21:29;3.50;99.90
41060;DHT22;26811;53.160;8.202;2022-12-07T02:31:43;3.40;99.90
41060;DHT22;26811;53.160;8.202;2022-12-07T02:36:45;3.40;99.90
41060;DHT22;26811;53.160;8.202;2022-12-07T02:41:47;3.30;99.90
41060;DHT22;26811;53.160;8.202;2022-12-07T02:47:00;3.10;99.90
41060;DHT22;26811;53.160;8.202;2022-12-07T02:52:02;3.00;99.90
41060;DHT22;26811;53.160;8.202;2022-12-07T03:23:51;2.80;99.90
41060;DHT22;26811;53.160;8.202;2022-12-07T03:51:40;2.70;99.90
41060;DHT22;26811;53.160;8.202;2022-12-07T04:46:42;2.80;99.90
41060;DHT22;26811;53.160;8.202;2022-12-07T04:52:03;2.70;99.90
41060;DHT22;26811;53.160;8.202;2022-12-07T04:57:29;2.70;99.90
41060;DHT22;26811;53.160;8.202;2022-12-07T05:47:17;2.70;99.90
41060;DHT22;26811;53.160;8.202;2022-12-07T06:08:51;2.90;99.90
41060;DHT22;26811;53.160;8.202;2022-12-07T06:14:08;2.90;99.90
41060;DHT22;26811;53.160;8.202;2022-12-07T06:19:17;3.00;99.90
41060;DHT22;26811;53.160;8.202;2022-12-07T06:24:39;3.00;99.90
41060;DHT22;26811;53.160;8.202;2022-12-07T06:29:58;3.10;99.90
41060;DHT22;26811;53.160;8.202;2022-12-07T06:35:06;3.20;99.90
41060;DHT22;26811;53.160;8.202;2022-12-07T06:40:07;3.30;99.90
41060;DHT22;26811;53.160;8.202;2022-12-07T06:45:20;3.30;99.90
41060;DHT22;26811;53.160;8.202;2022-12-07T06:50:26;3.40;99.90
41060;DHT22;26811;53.160;8.202;2022-12-07T06:55:29;3.40;99.90
41060;DHT22;26811;53.160;8.202;2022-12-07T07:00:32;3.30;99.90
41060;DHT22;26811;53.160;8.202;2022-12-07T07:05:36;3.30;99.90
41060;DHT22;26811;53.160;8.202;2022-12-07T07:10:37;3.00;99.90
41060;DHT22;26811;53.160;8.202;2022-12-07T07:15:40;2.90;99.90
41060;DHT22;26811;53.160;8.202;2022-12-07T07:20:46;2.60;99.90
41060;DHT22;26811;53.160;8.202;2022-12-07T07:25:52;2.40;99.90
41060;DHT22;26811;53.160;8.202;2022-12-07T07:30:56;2.20;99.90
41060;DHT22;26811;53.160;8.202;2022-12-07T07:35:57;2.20;99.90
41060;DHT22;26811;53.160;8.202;2022-12-07T07:41:05;2.10;99.90
41060;DHT22;26811;53.160;8.202;2022-12-07T07:46:31;2.00;99.90
41060;DHT22;26811;53.160;8.202;2022-12-07T07:52:34;2.00;99.90
41060;DHT22;26811;53.160;8.202;2022-12-07T07:57:38;2.20;99.90
41060;DHT22;26811;53.160;8.202;2022-12-07T08:03:01;2.50;99.90
41060;DHT22;26811;53.160;8.202;2022-12-07T08:08:23;2.70;99.90
41060;DHT22;26811;53.160;8.202;2022-12-07T08:25:03;2.70;99.90
41060;DHT22;26811;53.160;8.202;2022-12-07T08:42:15;3.30;99.90
41060;DHT22;26811;53.160;8.202;2022-12-07T08:53:22;3.50;99.90
41060;DHT22;26811;53.160;8.202;2022-12-07T08:58:38;3.50;99.90
41060;DHT22;26811;53.160;8.202;2022-12-07T09:04:10;3.60;99.90
41060;DHT22;26811;53.160;8.202;2022-12-07T09:14:31;3.70;99.90
41060;DHT22;26811;53.160;8.202;2022-12-07T09:19:48;3.80;99.90
41060;DHT22;26811;53.160;8.202;2022-12-07T09:36:05;4.40;99.90
41060;DHT22;26811;53.160;8.202;2022-12-07T09:41:29;4.60;99.90
41060;DHT22;26811;53.160;8.202;2022-12-07T09:46:59;4.50;99.90
41060;DHT22;26811;53.160;8.202;2022-12-07T09:52:18;4.30;99.90
41060;DHT22;26811;53.160;8.202;2022-12-07T09:57:48;4.30;99.90
41060;DHT22;26811;53.160;8.202;2022-12-07T10:03:10;4.40;99.90
41060;DHT22;26811;53.160;8.202;2022-12-07T10:13:38;4.60;99.90
41060;DHT22;26811;53.160;8.202;2022-12-07T11:18:03;5.30;99.90
41060;DHT22;26811;53.160;8.202;2022-12-07T11:23:16;5.20;99.90
41060;DHT22;26811;53.160;8.202;2022-12-07T11:28:28;5.10;99.90
41060;DHT22;26811;53.160;8.202;2022-12-07T11:33:53;5.10;99.90
41060;DHT22;26811;53.160;8.202;2022-12-07T11:39:00;5.20;99.90
41060;DHT22;26811;53.160;8.202;2022-12-07T11:44:06;5.40;99.90
41060;DHT22;26811;53.160;8.202;2022-12-07T11:54:30;5.60;99.90
41060;DHT22;26811;53.160;8.202;2022-12-07T11:59:43;5.60;99.90
41060;DHT22;26811;53.160;8.202;2022-12-07T12:04:56;5.70;99.90
41060;DHT22;26811;53.160;8.202;2022-12-07T12:09:59;5.70;99.90
41060;DHT22;26811;53.160;8.202;2022-12-07T12:20:29;5.80;99.90
41060;DHT22;26811;53.160;8.202;2022-12-07T12:25:39;5.80;99.90
41060;DHT22;26811;53.160;8.202;2022-12-07T12:30:40;5.80;99.90
41060;DHT22;26811;53.160;8.202;2022-12-07T12:35:41;5.70;99.90
41060;DHT22;26811;53.160;8.202;2022-12-07T12:40:42;5.70;99.90
41060;DHT22;26811;53.160;8.202;2022-12-07T12:45:42;5.70;99.90
41060;DHT22;26811;53.160;8.202;2022-12-07T12:50:43;5.80;99.90
41060;DHT22;26811;53.160;8.202;2022-12-07T12:56:07;5.80;99.90
41060;DHT22;26811;53.160;8.202;2022-12-07T13:16:39;5.10;99.90
41060;DHT22;26811;53.160;8.202;2022-12-07T13:27:21;4.80;99.90
41060;DHT22;26811;53.160;8.202;2022-12-07T13:32:28;4.70;99.90
41060;DHT22;26811;53.160;8.202;2022-12-07T13:37:30;4.60;99.90
41060;DHT22;26811;53.160;8.202;2022-12-07T13:42:35;4.70;99.90
41060;DHT22;26811;53.160;8.202;2022-12-07T13:47:41;4.90;99.90
41060;DHT22;26811;53.160;8.202;2022-12-07T13:52:46;5.20;99.90
41060;DHT22;26811;53.160;8.202;2022-12-07T13:57:50;5.40;99.90
41060;DHT22;26811;53.160;8.202;2022-12-07T14:02:58;5.40;99.90
41060;DHT22;26811;53.160;8.202;2022-12-07T14:13:23;4.40;99.90
41060;DHT22;26811;53.160;8.202;2022-12-07T14:18:27;3.90;99.90
41060;DHT22;26811;53.160;8.202;2022-12-07T14:23:29;3.30;99.90
41060;DHT22;26811;53.160;8.202;2022-12-07T14:28:31;2.90;99.90
41060;DHT22;26811;53.160;8.202;2022-12-07T14:33:31;2.70;99.90
41060;DHT22;26811;53.160;8.202;2022-12-07T14:38:32;2.60;99.90
41060;DHT22;26811;53.160;8.202;2022-12-07T14:43:33;2.50;99.90
41060;DHT22;26811;53.160;8.202;2022-12-07T14:48:33;2.60;99.90
41060;DHT22;26811;53.160;8.202;2022-12-07T14:53:35;2.80;99.90
41060;DHT22;26811;53.160;8.202;2022-12-07T14:58:37;2.80;99.90
41060;DHT22;26811;53.160;8.202;2022-12-07T15:03:37;2.90;99.90
41060;DHT22;26811;53.160;8.202;2022-12-07T15:08:38;2.90;99.90
41060;DHT22;26811;53.160;8.202;2022-12-07T15:13:41;2.90;99.90
41060;DHT22;26811;53.160;8.202;2022-12-07T15:19:16;3.00;99.90
41060;DHT22;26811;53.160;8.202;2022-12-07T15:24:43;3.00;99.90
41060;DHT22;26811;53.160;8.202;2022-12-07T15:29:44;3.10;99.90
41060;DHT22;26811;53.160;8.202;2022-12-07T15:34:47;3.20;99.90
41060;DHT22;26811;53.160;8.202;2022-12-07T15:39:48;3.30;99.90
41060;DHT22;26811;53.160;8.202;2022-12-07T15:44:48;3.30;99.90
41060;DHT22;26811;53.160;8.202;2022-12-07T15:50:04;3.40;99.90
41060;DHT22;26811;53.160;8.202;2022-12-07T15:55:07;3.40;99.90
41060;DHT22;26811;53.160;8.202;2022-12-07T16:00:09;3.40;99.90
41060;DHT22;26811;53.160;8.202;2022-12-07T16:05:10;3.40;99.90
41060;DHT22;26811;53.160;8.202;2022-12-07T16:10:16;3.40;99.90
41060;DHT22;26811;53.160;8.202;2022-12-07T16:15:20;3.40;99.90
41060;DHT22;26811;53.160;8.202;2022-12-07T16:20:24;3.40;99.90
41060;DHT22;26811;53.160;8.202;2022-12-07T16:25:25;3.40;99.90
41060;DHT22;26811;53.160;8.202;2022-12-07T16:30:26;3.40;99.90
41060;DHT22;26811;53.160;8.202;2022-12-07T16:35:29;3.50;99.90
41060;DHT22;26811;53.160;8.202;2022-12-07T16:40:30;3.50;99.90
41060;DHT22;26811;53.160;8.202;2022-12-07T16:45:33;3.30;99.90
41060;DHT22;26811;53.160;8.202;2022-12-07T16:50:33;3.20;99.90
41060;DHT22;26811;53.160;8.202;2022-12-07T16:55:38;3.10;99.90
41060;DHT22;26811;53.160;8.202;2022-12-07T17:00:39;3.00;99.90
41060;DHT22;26811;53.160;8.202;2022-12-07T17:05:40;3.00;99.90
41060;DHT22;26811;53.160;8.202;2022-12-07T17:10:44;3.10;99.90
41060;DHT22;26811;53.160;8.202;2022-12-07T17:15:53;3.10;99.90
41060;DHT22;26811;53.160;8.202;2022-12-07T17:20:54;3.20;99.90
41060;DHT22;26811;53.160;8.202;2022-12-07T17:25:55;3.20;99.90
41060;DHT22;26811;53.160;8.202;2022-12-07T17:30:56;3.10;99.90
41060;DHT22;26811;53.160;8.202;2022-12-07T17:41:24;3.00;99.90
41060;DHT22;26811;53.160;8.202;2022-12-07T17:46:46;3.00;99.90
41060;DHT22;26811;53.160;8.202;2022-12-07T17:51:54;2.90;99.90
41060;DHT22;26811;53.160;8.202;2022-12-07T17:57:13;2.80;99.90
41060;DHT22;26811;53.160;8.202;2022-12-07T18:02:14;2.70;99.90
41060;DHT22;26811;53.160;8.202;2022-12-07T18:07:15;2.70;99.90
41060;DHT22;26811;53.160;8.202;2022-12-07T18:12:40;2.60;99.90
41060;DHT22;26811;53.160;8.202;2022-12-07T18:17:44;2.60;99.90
41060;DHT22;26811;53.160;8.202;2022-12-07T18:22:52;2.60;99.90
41060;DHT22;26811;53.160;8.202;2022-12-07T18:27:56;2.60;99.90
41060;DHT22;26811;53.160;8.202;2022-12-07T18:32:58;2.60;99.90
41060;DHT22;26811;53.160;8.202;2022-12-07T18:38:02;2.60;99.90
41060;DHT22;26811;53.160;8.202;2022-12-07T18:43:05;2.50;99.90
41060;DHT22;26811;53.160;8.202;2022-12-07T18:48:07;2.40;99.90
41060;DHT22;26811;53.160;8.202;2022-12-07T18:53:08;2.40;99.90
41060;DHT22;26811;53.160;8.202;2022-12-07T18:58:09;2.40;99.90
41060;DHT22;26811;53.160;8.202;2022-12-07T19:03:12;2.40;99.90
41060;DHT22;26811;53.160;8.202;2022-12-07T19:08:13;2.40;99.90
41060;DHT22;26811;53.160;8.202;2022-12-07T19:13:13;2.40;99.90
41060;DHT22;26811;53.160;8.202;2022-12-07T19:18:17;2.40;99.90
41060;DHT22;26811;53.160;8.202;2022-12-07T19:23:20;2.30;99.90
41060;DHT22;26811;53.160;8.202;2022-12-07T19:28:22;2.20;99.90
41060;DHT22;26811;53.160;8.202;2022-12-07T19:33:27;2.20;99.90
41060;DHT22;26811;53.160;8.202;2022-12-07T19:38:48;2.20;99.90
41060;DHT22;26811;53.160;8.202;2022-12-07T19:43:52;2.20;99.90
41060;DHT22;26811;53.160;8.202;2022-12-07T19:48:53;2.30;99.90
41060;DHT22;26811;53.160;8.202;2022-12-07T19:53:58;2.30;99.90
41060;DHT22;26811;53.160;8.202;2022-12-07T19:58:59;2.30;99.90
41060;DHT22;26811;53.160;8.202;2022-12-07T20:04:00;2.40;99.90
41060;DHT22;26811;53.160;8.202;2022-12-07T20:09:00;2.40;99.90
41060;DHT22;26811;53.160;8.202;2022-12-07T20:14:01;2.50;99.90
41060;DHT22;26811;53.160;8.202;2022-12-07T20:19:02;2.50;99.90
41060;DHT22;26811;53.160;8.202;2022-12-07T20:24:03;2.50;99.90
41060;DHT22;26811;53.160;8.202;2022-12-07T20:29:05;2.50;99.90
41060;DHT22;26811;53.160;8.202;2022-12-07T20:34:05;2.60;99.90
41060;DHT22;26811;53.160;8.202;2022-12-07T20:39:06;2.70;99.90
41060;DHT22;26811;53.160;8.202;2022-12-07T20:44:07;2.70;99.90
41060;DHT22;26811;53.160;8.202;2022-12-07T20:49:07;2.80;99.90
41060;DHT22;26811;53.160;8.202;2022-12-07T20:54:09;2.80;99.90
41060;DHT22;26811;53.160;8.202;2022-12-07T20:59:10;2.90;99.90
41060;DHT22;26811;53.160;8.202;2022-12-07T21:04:12;2.90;99.90
41060;DHT22;26811;53.160;8.202;2022-12-07T21:09:12;2.90;99.90
41060;DHT22;26811;53.160;8.202;2022-12-07T21:14:13;2.90;99.90
41060;DHT22;26811;53.160;8.202;2022-12-07T21:19:13;2.90;99.90
41060;DHT22;26811;53.160;8.202;2022-12-07T21:24:14;2.90;99.90
41060;DHT22;26811;53.160;8.202;2022-12-07T21:29:14;2.80;99.90
41060;DHT22;26811;53.160;8.202;2022-12-07T21:34:15;2.70;99.90
41060;DHT22;26811;53.160;8.202;2022-12-07T21:39:15;2.60;99.90
41060;DHT22;26811;53.160;8.202;2022-12-07T21:44:16;2.60;99.90
41060;DHT22;26811;53.160;8.202;2022-12-07T21:49:17;2.60;99.90
41060;DHT22;26811;53.160;8.202;2022-12-07T21:54:17;2.60;99.90
41060;DHT22;26811;53.160;8.202;2022-12-07T21:59:18;2.60;99.90
41060;DHT22;26811;53.160;8.202;2022-12-07T22:04:21;2.50;99.90
41060;DHT22;26811;53.160;8.202;2022-12-07T22:09:22;2.50;99.90
41060;DHT22;26811;53.160;8.202;2022-12-07T22:14:22;2.50;99.90
41060;DHT22;26811;53.160;8.202;2022-12-07T22:19:41;2.60;99.90
41060;DHT22;26811;53.160;8.202;2022-12-07T22:24:42;2.60;99.90
41060;DHT22;26811;53.160;8.202;2022-12-07T22:29:43;2.60;99.90
41060;DHT22;26811;53.160;8.202;2022-12-07T22:34:44;2.60;99.90
41060;DHT22;26811;53.160;8.202;2022-12-07T22:39:45;2.70;99.90
41060;DHT22;26811;53.160;8.202;2022-12-07T22:44:45;2.60;99.90
41060;DHT22;26811;53.160;8.202;2022-12-07T22:49:49;2.60;99.90
41060;DHT22;26811;53.160;8.202;2022-12-07T22:54:50;2.60;99.90
41060;DHT22;26811;53.160;8.202;2022-12-07T22:59:51;2.50;99.90
41060;DHT22;26811;53.160;8.202;2022-12-07T23:04:51;2.40;99.90
41060;DHT22;26811;53.160;8.202;2022-12-07T23:09:51;2.30;99.90
41060;DHT22;26811;53.160;8.202;2022-12-07T23:14:52;2.20;99.90
41060;DHT22;26811;53.160;8.202;2022-12-07T23:19:53;2.20;99.90
41060;DHT22;26811;53.160;8.202;2022-12-07T23:24:54;2.10;99.90
41060;DHT22;26811;53.160;8.202;2022-12-07T23:29:54;2.00;99.90
41060;DHT22;26811;53.160;8.202;2022-12-07T23:34:55;2.00;99.90
41060;DHT22;26811;53.160;8.202;2022-12-07T23:39:55;2.00;99.90
41060;DHT22;26811;53.160;8.202;2022-12-07T23:44:56;2.10;99.90
41060;DHT22;26811;53.160;8.202;2022-12-07T23:50:17;2.10;99.90
41060;DHT22;26811;53.160;8.202;2022-12-07T23:55:25;2.00;99.90
